Keeler, CA (93530)

6:53 AM PDT on July 25, 2014 (GMT -0700)
China Lake NAWS (KNID) Elev 2283 ft | 35.69 °N, 117.69 °W | Change Station

Current weather conditions updated 57 minutes ago

Clear
Clear
77 °F
Feels Like 77 °F
N
5
Wind Variable Wind from SW

Today is forecast to be Much Cooler than yesterday.

Today
High -- | Low -- °F
--% Chance of Precip.
Yesterday
High -- | Low -- °F
Precip. -- in
5:52 AM 8:03 PM
Waning Crescent, 2% visible
Pressure 29.79 in
Visibility 10.0 miles
Clouds Scattered Clouds 28000 ft
Dew Point 36 °F
Humidity 23%
Rainfall 0.00 in
Snow Depth Not available.
UV 0 out of 12
Pollen 5.70 out of 12
Air Quality Not available.
Flu Activity Not available.
METAR KNID 251256Z 23004KT 10SM SCT280 25/02 A2987 RMK AO2 SLP087 T02500022

More Conditions Fewer Conditions

Pressure 29.79 in
Visibility 10.0 miles
Clouds Scattered Clouds 28000 ft
Dew Point 36 °F
Humidity 23%
Rainfall 0.00 in
Snow Depth Not available.
UV 0 out of 12
Pollen 5.70 out of 12
Air Quality Not available.
Flu Activity Not available.
METAR KNID 251256Z 23004KT 10SM SCT280 25/02 A2987 RMK AO2 SLP087 T02500022

More Conditions Fewer Conditions

10-Day Weather Forecast

Almanac

Astronomy

Jul. 25, 2014 Rise Set
Actual Time 5:52 AM PDT 8:03 PM PDT
Civil Twilight 5:23 AM PDT 8:32 PM PDT
Nautical Twilight 4:47 AM PDT 9:07 PM PDT
Astronomical Twilight 4:09 AM PDT 9:45 PM PDT
Moon 4:54 AM PDT 7:04 PM PDT
Length of Visible Light 15h 08m
Length of Day
14h 10m
Tomorrow will be 1m 33s shorter.
Waning Crescent, 2% of the Moon is Illuminated
Today
Waning Crescent
Jul 26
New
Aug 3
First Quarter
Aug 10
Full
Aug 17
Last Quarter

Today's Extremes

State Highs State Lows

Community

WunderPhotos

Upload Photos

1,737,324 photos uploaded!

Nearby

Snow Depth

Station Depth Elevation
Leavitt Lake 0 in 9400 ft
Leavitt Meadows 1 in 7200 ft
Sonora Pass 0 in 8800 ft
Summit Meadow 1 in 9122 ft
Monitor Pass 0 in 8350 ft

Earthquake Activity

City Distance Mag. Time & Date
Baker, California 113 miles 3.0 12:48 PM PDT
2014-07-20
Baker, California 113 miles 3.2 12:43 PM PDT
2014-07-20
Minimum magnitude displayed is 2.5.

Coastal Water Temperatures

Place Temperature
No Stations Reporting

Nearby Weather Stations

Station Location Temp. Heat Index Dew Point Humidity Wind Precip. Elev Updated Type
RAWS HUNTER MOUNTAIN CA, Keeler, CA 72 °F 73 °F 17 °F 12% ESE  at  10 mph 0.00 in / hr 6879 ft 6:23 AM PDT MADIS
COTTONWOOD LAKES, Lone Pine, CA 57.0 °F - - - North  at  - - / hr 10213 ft 6:45 AM PDT Normal

Show More Stations Show Fewer Stations